Historique des mesures à Cassis (13260), France
Quotidien Résumé Mai 15, 2017 Unités:  Métrique    US   Métrique/US
« Précédent (Jour)
Suivant (Jour) »
Quotidien Hebdomadaire Mensuel Annuel Période au choix
  Maximum: Minimum: Moyenne:
Température: TemperatureC °C 17.2 °C 19.8 °C
Point de rosée: DewpointC °C 9.7 °C 12.4 °C
Humidité: Humidity % 54 % 59 %
Vitesse du vent: 0 km/h 0 km/h 6.6 km/h
Rafales: 0 km/h - -
Vent:- - SSE
Pression: PressurehPa hPa 1019.9 hPa -
Précipitations: 0.0 mm    
Historical Graphs
 
 
Mesures pour : Mai 15, 2017
Heure Temperature Point de rosée Pression Vent Vitesse du vent Rafales Humidité Pluie (par heure) Conditions
TemperatureC °C DewpointC °C PressurehPa hPa Calm     Humidity % HourlyPrecipMM mm SoftwareType W/m2
00:10 19.8 °C 10.2 °C 1020.5 hPa NW 41.2 km/h 41.2 km/h 54 % 0.0 mm open2300-1.11 W/m2
01:10 18.8 °C 10.6 °C 1020.5 hPa West 10.9 km/h 27.7 km/h 59 % 0.0 mm open2300-1.11 W/m2
02:10 18.4 °C 10.5 °C 1020.5 hPa Calm     60 % 0.0 mm open2300-1.11 W/m2
03:10 17.6 °C 10.7 °C 1020.5 hPa Calm     64 % 0.0 mm open2300-1.11 W/m2
04:11 17.4 °C 10.9 °C 1020.5 hPa NNW 6.9 km/h 6.9 km/h 66 % 0.0 mm open2300-1.11 W/m2
05:11 17.8 °C 10.4 °C 1020.5 hPa NNE 9.3 km/h 10.9 km/h 62 % 0.0 mm open2300-1.11 W/m2
06:10 17.2 °C 10.1 °C 1019.9 hPa North 9.3 km/h 15.6 km/h 63 % 0.0 mm open2300-1.11 W/m2
07:10 18.4 °C 9.7 °C 1020.2 hPa North 13.2 km/h 13.2 km/h 57 % 0.0 mm open2300-1.11 W/m2
08:10 19.9 °C 10.8 °C 1020.9 hPa NNE 4.2 km/h 7.6 km/h 56 % 0.0 mm open2300-1.11 W/m2
09:10 19.8 °C 10.7 °C 1021.6 hPa ENE 7.6 km/h 9.3 km/h 56 % 0.0 mm open2300-1.11 W/m2
10:10 19.4 °C 13.6 °C 1022.2 hPa SSE 2.9 km/h 24.8 km/h 69 % 0.0 mm open2300-1.11 W/m2
11:10 22.9 °C 15.9 °C 1022.2 hPa SW 6.4 km/h 10.3 km/h 65 % 0.0 mm open2300-1.11 W/m2
12:10 24.1 °C 16.4 °C 1022.2 hPa Calm   11.6 km/h 62 % 0.0 mm open2300-1.11 W/m2
13:10 23.7 °C 15.7 °C 1022.2 hPa ESE 10.3 km/h 10.3 km/h 61 % 0.0 mm open2300-1.11 W/m2
14:10 24.3 °C 15.8 °C 1022.2 hPa SSE 1.8 km/h 10.3 km/h 59 % 0.0 mm open2300-1.11 W/m2
15:10 24.6 °C 15.8 °C 1021.6 hPa SE 4.2 km/h 8 km/h 58 % 0.0 mm open2300-1.11 W/m2
16:10 24.3 °C 15.2 °C 1021.2 hPa ESE 6.9 km/h 6.9 km/h 57 % 0.0 mm open2300-1.11 W/m2
17:10 23.4 °C 15.2 °C 1020.5 hPa SE 7.6 km/h 7.6 km/h 60 % 0.0 mm open2300-1.11 W/m2
18:10 22.7 °C 15.3 °C 1020.5 hPa SE 5.1 km/h 9.3 km/h 63 % 0.0 mm open2300-1.11 W/m2
19:10 22.5 °C 15.1 °C 1020.5 hPa SSE 9.3 km/h 9.8 km/h 63 % 0.0 mm open2300-1.11 W/m2
20:10 21.5 °C 14.4 °C 1020.5 hPa NW 6.4 km/h 6.4 km/h 64 % 0.0 mm open2300-1.11 W/m2
21:10 20.3 °C 13.5 °C 1020.9 hPa Calm     65 % 0.0 mm open2300-1.11 W/m2
22:10 19.0 °C 12.7 °C 1021.6 hPa Calm     67 % 0.0 mm open2300-1.11 W/m2
23:10 18.2 °C 11.9 °C 1021.6 hPa Calm     67 % 0.0 mm open2300-1.11 W/m2
Observations météo à CASSIS
WU-History script by Weather Underground - 1 mb